sensor_id;sensor_type;location;lat;lon;timestamp;temperature;humidity
70170;DHT22;57543;45.442;9.212;2023-11-19T00:02:39;12.24;58.37
70170;DHT22;57543;45.442;9.212;2023-11-19T00:05:43;12.05;58.98
70170;DHT22;57543;45.442;9.212;2023-11-19T00:08:47;12.01;59.33
70170;DHT22;57543;45.442;9.212;2023-11-19T00:11:51;12.11;59.15
70170;DHT22;57543;45.442;9.212;2023-11-19T00:14:55;12.04;59.64
70170;DHT22;57543;45.442;9.212;2023-11-19T00:18:05;12.01;59.86
70170;DHT22;57543;45.442;9.212;2023-11-19T00:21:09;11.90;60.14
70170;DHT22;57543;45.442;9.212;2023-11-19T00:24:13;11.86;59.97
70170;DHT22;57543;45.442;9.212;2023-11-19T00:27:19;11.82;60.11
70170;DHT22;57543;45.442;9.212;2023-11-19T00:30:24;11.80;59.89
70170;DHT22;57543;45.442;9.212;2023-11-19T00:33:27;11.76;59.66
70170;DHT22;57543;45.442;9.212;2023-11-19T00:36:30;11.66;59.72
70170;DHT22;57543;45.442;9.212;2023-11-19T00:39:33;11.67;59.72
70170;DHT22;57543;45.442;9.212;2023-11-19T00:42:37;11.69;60.15
70170;DHT22;57543;45.442;9.212;2023-11-19T00:45:42;11.56;61.02
70170;DHT22;57543;45.442;9.212;2023-11-19T00:48:46;11.58;61.01
70170;DHT22;57543;45.442;9.212;2023-11-19T00:51:51;11.49;60.53
70170;DHT22;57543;45.442;9.212;2023-11-19T00:54:54;11.49;60.66
70170;DHT22;57543;45.442;9.212;2023-11-19T00:57:57;11.48;60.54
70170;DHT22;57543;45.442;9.212;2023-11-19T01:01:01;11.45;61.14
70170;DHT22;57543;45.442;9.212;2023-11-19T01:04:08;11.38;61.30
70170;DHT22;57543;45.442;9.212;2023-11-19T01:07:11;11.54;59.95
70170;DHT22;57543;45.442;9.212;2023-11-19T01:10:18;11.76;59.19
70170;DHT22;57543;45.442;9.212;2023-11-19T01:13:25;11.17;61.65
70170;DHT22;57543;45.442;9.212;2023-11-19T01:16:31;11.45;61.23
70170;DHT22;57543;45.442;9.212;2023-11-19T01:19:35;11.38;61.42
70170;DHT22;57543;45.442;9.212;2023-11-19T01:22:39;11.31;61.56
70170;DHT22;57543;45.442;9.212;2023-11-19T01:25:43;11.29;61.86
70170;DHT22;57543;45.442;9.212;2023-11-19T01:28:47;11.35;61.61
70170;DHT22;57543;45.442;9.212;2023-11-19T01:31:52;11.31;61.47
70170;DHT22;57543;45.442;9.212;2023-11-19T01:34:57;11.29;62.07
70170;DHT22;57543;45.442;9.212;2023-11-19T01:38:01;11.18;62.45
70170;DHT22;57543;45.442;9.212;2023-11-19T01:41:04;11.20;62.47
70170;DHT22;57543;45.442;9.212;2023-11-19T01:44:08;11.15;62.13
70170;DHT22;57543;45.442;9.212;2023-11-19T01:47:12;11.12;62.39
70170;DHT22;57543;45.442;9.212;2023-11-19T01:50:17;11.07;62.83
70170;DHT22;57543;45.442;9.212;2023-11-19T01:53:41;11.10;62.70
70170;DHT22;57543;45.442;9.212;2023-11-19T01:56:45;11.14;62.53
70170;DHT22;57543;45.442;9.212;2023-11-19T01:59:50;11.18;62.35
70170;DHT22;57543;45.442;9.212;2023-11-19T02:02:55;11.17;62.70
70170;DHT22;57543;45.442;9.212;2023-11-19T02:05:59;11.01;63.71
70170;DHT22;57543;45.442;9.212;2023-11-19T02:09:04;10.90;64.02
70170;DHT22;57543;45.442;9.212;2023-11-19T02:12:13;10.94;63.72
70170;DHT22;57543;45.442;9.212;2023-11-19T02:15:17;10.90;63.94
70170;DHT22;57543;45.442;9.212;2023-11-19T02:18:27;10.75;64.38
70170;DHT22;57543;45.442;9.212;2023-11-19T02:21:31;10.76;64.46
70170;DHT22;57543;45.442;9.212;2023-11-19T02:24:36;10.73;64.58
70170;DHT22;57543;45.442;9.212;2023-11-19T02:27:58;10.75;64.01
70170;DHT22;57543;45.442;9.212;2023-11-19T02:31:03;10.66;64.66
70170;DHT22;57543;45.442;9.212;2023-11-19T02:34:10;10.72;64.55
70170;DHT22;57543;45.442;9.212;2023-11-19T02:37:15;10.66;64.54
70170;DHT22;57543;45.442;9.212;2023-11-19T02:40:23;10.63;64.49
70170;DHT22;57543;45.442;9.212;2023-11-19T02:43:27;10.65;64.32
70170;DHT22;57543;45.442;9.212;2023-11-19T02:46:31;10.62;64.79
70170;DHT22;57543;45.442;9.212;2023-11-19T02:49:36;10.69;64.58
70170;DHT22;57543;45.442;9.212;2023-11-19T02:52:41;10.83;63.87
70170;DHT22;57543;45.442;9.212;2023-11-19T02:55:45;10.72;64.70
70170;DHT22;57543;45.442;9.212;2023-11-19T02:58:53;10.73;64.39
70170;DHT22;57543;45.442;9.212;2023-11-19T03:01:57;10.63;64.15
70170;DHT22;57543;45.442;9.212;2023-11-19T03:05:02;10.65;64.75
70170;DHT22;57543;45.442;9.212;2023-11-19T03:08:10;10.60;64.83
70170;DHT22;57543;45.442;9.212;2023-11-19T03:11:14;10.46;65.56
70170;DHT22;57543;45.442;9.212;2023-11-19T03:14:18;10.55;65.17
70170;DHT22;57543;45.442;9.212;2023-11-19T03:17:25;10.59;64.84
70170;DHT22;57543;45.442;9.212;2023-11-19T03:20:30;10.62;65.01
70170;DHT22;57543;45.442;9.212;2023-11-19T03:23:34;10.58;65.50
70170;DHT22;57543;45.442;9.212;2023-11-19T03:26:38;10.60;65.40
70170;DHT22;57543;45.442;9.212;2023-11-19T03:29:43;10.60;65.11
70170;DHT22;57543;45.442;9.212;2023-11-19T03:32:50;10.53;65.26
70170;DHT22;57543;45.442;9.212;2023-11-19T03:35:54;10.50;65.33
70170;DHT22;57543;45.442;9.212;2023-11-19T03:39:00;10.50;65.39
70170;DHT22;57543;45.442;9.212;2023-11-19T03:42:06;10.48;65.80
70170;DHT22;57543;45.442;9.212;2023-11-19T03:45:09;10.42;65.75
70170;DHT22;57543;45.442;9.212;2023-11-19T03:48:13;10.53;65.31
70170;DHT22;57543;45.442;9.212;2023-11-19T03:51:19;10.56;65.27
70170;DHT22;57543;45.442;9.212;2023-11-19T03:54:25;10.56;65.73
70170;DHT22;57543;45.442;9.212;2023-11-19T03:57:31;10.55;65.89
70170;DHT22;57543;45.442;9.212;2023-11-19T04:00:35;10.38;66.53
70170;DHT22;57543;45.442;9.212;2023-11-19T04:03:39;10.44;66.50
70170;DHT22;57543;45.442;9.212;2023-11-19T04:06:42;10.34;66.89
70170;DHT22;57543;45.442;9.212;2023-11-19T04:09:46;10.30;67.08
70170;DHT22;57543;45.442;9.212;2023-11-19T04:12:53;10.32;66.86
70170;DHT22;57543;45.442;9.212;2023-11-19T04:15:56;10.24;67.06
70170;DHT22;57543;45.442;9.212;2023-11-19T04:19:03;10.31;66.80
70170;DHT22;57543;45.442;9.212;2023-11-19T04:22:09;10.37;66.63
70170;DHT22;57543;45.442;9.212;2023-11-19T04:25:13;10.34;66.70
70170;DHT22;57543;45.442;9.212;2023-11-19T04:28:18;10.46;66.54
70170;DHT22;57543;45.442;9.212;2023-11-19T04:31:31;10.49;66.25
70170;DHT22;57543;45.442;9.212;2023-11-19T04:34:37;10.35;66.75
70170;DHT22;57543;45.442;9.212;2023-11-19T04:37:41;10.32;66.88
70170;DHT22;57543;45.442;9.212;2023-11-19T04:40:48;10.30;66.77
70170;DHT22;57543;45.442;9.212;2023-11-19T04:43:51;10.27;66.88
70170;DHT22;57543;45.442;9.212;2023-11-19T04:46:57;10.21;67.39
70170;DHT22;57543;45.442;9.212;2023-11-19T04:50:02;10.18;67.66
70170;DHT22;57543;45.442;9.212;2023-11-19T04:53:10;10.15;68.03
70170;DHT22;57543;45.442;9.212;2023-11-19T04:56:17;10.08;68.29
70170;DHT22;57543;45.442;9.212;2023-11-19T04:59:23;10.10;68.28
70170;DHT22;57543;45.442;9.212;2023-11-19T05:02:26;10.11;68.09
70170;DHT22;57543;45.442;9.212;2023-11-19T05:05:30;10.05;68.29
70170;DHT22;57543;45.442;9.212;2023-11-19T05:08:35;10.08;68.39
70170;DHT22;57543;45.442;9.212;2023-11-19T05:11:39;10.00;68.63
70170;DHT22;57543;45.442;9.212;2023-11-19T05:14:44;9.93;69.12
70170;DHT22;57543;45.442;9.212;2023-11-19T05:17:52;10.07;68.68
70170;DHT22;57543;45.442;9.212;2023-11-19T05:20:56;10.11;68.47
70170;DHT22;57543;45.442;9.212;2023-11-19T05:24:00;10.04;68.57
70170;DHT22;57543;45.442;9.212;2023-11-19T05:27:04;10.05;68.84
70170;DHT22;57543;45.442;9.212;2023-11-19T05:30:08;9.98;68.94
70170;DHT22;57543;45.442;9.212;2023-11-19T05:33:12;10.10;68.60
70170;DHT22;57543;45.442;9.212;2023-11-19T05:36:16;10.00;68.56
70170;DHT22;57543;45.442;9.212;2023-11-19T05:39:20;9.90;68.91
70170;DHT22;57543;45.442;9.212;2023-11-19T05:42:24;9.86;69.13
70170;DHT22;57543;45.442;9.212;2023-11-19T05:45:27;9.89;68.86
70170;DHT22;57543;45.442;9.212;2023-11-19T05:48:31;9.60;69.76
70170;DHT22;57543;45.442;9.212;2023-11-19T05:51:38;9.85;69.16
70170;DHT22;57543;45.442;9.212;2023-11-19T05:54:42;9.66;69.65
70170;DHT22;57543;45.442;9.212;2023-11-19T05:57:45;9.75;69.28
70170;DHT22;57543;45.442;9.212;2023-11-19T06:00:52;9.76;69.06
70170;DHT22;57543;45.442;9.212;2023-11-19T06:03:55;9.72;69.22
70170;DHT22;57543;45.442;9.212;2023-11-19T06:06:59;9.73;69.29
70170;DHT22;57543;45.442;9.212;2023-11-19T06:10:03;9.75;69.09
70170;DHT22;57543;45.442;9.212;2023-11-19T06:13:09;9.68;69.53
70170;DHT22;57543;45.442;9.212;2023-11-19T06:16:15;9.68;69.50
70170;DHT22;57543;45.442;9.212;2023-11-19T06:19:18;9.68;69.69
70170;DHT22;57543;45.442;9.212;2023-11-19T06:22:22;9.73;69.50
70170;DHT22;57543;45.442;9.212;2023-11-19T06:25:26;9.65;69.52
70170;DHT22;57543;45.442;9.212;2023-11-19T06:28:30;9.66;69.52
70170;DHT22;57543;45.442;9.212;2023-11-19T06:31:33;9.73;69.54
70170;DHT22;57543;45.442;9.212;2023-11-19T06:34:36;9.60;70.11
70170;DHT22;57543;45.442;9.212;2023-11-19T06:37:41;9.46;70.67
70170;DHT22;57543;45.442;9.212;2023-11-19T06:40:45;9.58;70.41
70170;DHT22;57543;45.442;9.212;2023-11-19T06:43:48;9.66;70.03
70170;DHT22;57543;45.442;9.212;2023-11-19T06:46:52;9.66;69.89
70170;DHT22;57543;45.442;9.212;2023-11-19T06:49:56;9.75;69.85
70170;DHT22;57543;45.442;9.212;2023-11-19T06:53:00;9.77;69.82
70170;DHT22;57543;45.442;9.212;2023-11-19T06:56:04;9.75;70.21
70170;DHT22;57543;45.442;9.212;2023-11-19T06:59:09;9.79;69.95
70170;DHT22;57543;45.442;9.212;2023-11-19T07:02:13;9.86;69.44
70170;DHT22;57543;45.442;9.212;2023-11-19T07:05:18;9.80;69.49
70170;DHT22;57543;45.442;9.212;2023-11-19T07:08:21;10.04;68.99
70170;DHT22;57543;45.442;9.212;2023-11-19T07:11:25;10.20;68.02
70170;DHT22;57543;45.442;9.212;2023-11-19T07:14:28;11.12;66.11
70170;DHT22;57543;45.442;9.212;2023-11-19T07:17:32;13.08;59.78
70170;DHT22;57543;45.442;9.212;2023-11-19T07:20:35;15.01;53.64
70170;DHT22;57543;45.442;9.212;2023-11-19T07:23:41;16.41;49.94
70170;DHT22;57543;45.442;9.212;2023-11-19T07:26:46;17.74;46.40
70170;DHT22;57543;45.442;9.212;2023-11-19T07:29:50;18.59;44.00
70170;DHT22;57543;45.442;9.212;2023-11-19T07:32:54;19.42;42.76
70170;DHT22;57543;45.442;9.212;2023-11-19T07:35:58;19.83;41.54
70170;DHT22;57543;45.442;9.212;2023-11-19T07:39:01;20.70;40.02
70170;DHT22;57543;45.442;9.212;2023-11-19T07:42:08;21.28;38.86
70170;DHT22;57543;45.442;9.212;2023-11-19T07:45:15;21.77;37.76
70170;DHT22;57543;45.442;9.212;2023-11-19T07:48:18;22.10;37.16
70170;DHT22;57543;45.442;9.212;2023-11-19T07:51:27;22.84;36.10
70170;DHT22;57543;45.442;9.212;2023-11-19T07:54:30;23.39;35.10
70170;DHT22;57543;45.442;9.212;2023-11-19T07:57:34;23.73;34.35
70170;DHT22;57543;45.442;9.212;2023-11-19T08:00:38;23.15;35.34
70170;DHT22;57543;45.442;9.212;2023-11-19T08:03:44;23.74;34.43
70170;DHT22;57543;45.442;9.212;2023-11-19T08:06:56;24.32;33.64
70170;DHT22;57543;45.442;9.212;2023-11-19T08:10:02;24.59;33.23
70170;DHT22;57543;45.442;9.212;2023-11-19T08:13:06;24.97;32.71
70170;DHT22;57543;45.442;9.212;2023-11-19T08:16:10;24.79;32.93
70170;DHT22;57543;45.442;9.212;2023-11-19T08:19:16;25.43;32.25
70170;DHT22;57543;45.442;9.212;2023-11-19T08:22:20;25.72;31.97
70170;DHT22;57543;45.442;9.212;2023-11-19T08:25:26;26.38;31.06
70170;DHT22;57543;45.442;9.212;2023-11-19T08:28:29;26.94;30.59
70170;DHT22;57543;45.442;9.212;2023-11-19T08:31:34;27.37;29.70
70170;DHT22;57543;45.442;9.212;2023-11-19T08:34:38;27.27;29.76
70170;DHT22;57543;45.442;9.212;2023-11-19T08:37:43;27.33;29.94
70170;DHT22;57543;45.442;9.212;2023-11-19T08:40:47;27.67;29.71
70170;DHT22;57543;45.442;9.212;2023-11-19T08:43:50;27.67;29.60
70170;DHT22;57543;45.442;9.212;2023-11-19T08:46:54;27.52;29.86
70170;DHT22;57543;45.442;9.212;2023-11-19T08:49:58;27.10;30.49
70170;DHT22;57543;45.442;9.212;2023-11-19T08:53:01;25.92;32.13
70170;DHT22;57543;45.442;9.212;2023-11-19T08:56:06;24.39;34.62
70170;DHT22;57543;45.442;9.212;2023-11-19T08:59:09;23.56;36.16
70170;DHT22;57543;45.442;9.212;2023-11-19T09:02:13;22.96;36.91
70170;DHT22;57543;45.442;9.212;2023-11-19T09:05:17;22.39;37.85
70170;DHT22;57543;45.442;9.212;2023-11-19T09:08:21;21.27;40.16
70170;DHT22;57543;45.442;9.212;2023-11-19T09:11:25;20.84;40.67
70170;DHT22;57543;45.442;9.212;2023-11-19T09:14:28;20.17;42.17
70170;DHT22;57543;45.442;9.212;2023-11-19T09:17:34;19.58;43.13
70170;DHT22;57543;45.442;9.212;2023-11-19T09:20:38;19.48;43.74
70170;DHT22;57543;45.442;9.212;2023-11-19T09:23:42;18.96;44.43
70170;DHT22;57543;45.442;9.212;2023-11-19T09:26:45;18.79;45.12
70170;DHT22;57543;45.442;9.212;2023-11-19T09:29:53;18.26;46.45
70170;DHT22;57543;45.442;9.212;2023-11-19T09:33:01;17.86;47.80
70170;DHT22;57543;45.442;9.212;2023-11-19T09:36:06;17.86;47.24
70170;DHT22;57543;45.442;9.212;2023-11-19T09:39:11;17.72;47.67
70170;DHT22;57543;45.442;9.212;2023-11-19T09:42:14;17.69;48.00
70170;DHT22;57543;45.442;9.212;2023-11-19T09:45:20;17.39;49.19
70170;DHT22;57543;45.442;9.212;2023-11-19T09:52:18;17.27;48.81
70170;DHT22;57543;45.442;9.212;2023-11-19T09:55:26;17.11;49.20
70170;DHT22;57543;45.442;9.212;2023-11-19T09:58:30;16.94;49.37
70170;DHT22;57543;45.442;9.212;2023-11-19T10:01:38;16.63;50.57
70170;DHT22;57543;45.442;9.212;2023-11-19T10:04:42;16.42;51.42
70170;DHT22;57543;45.442;9.212;2023-11-19T10:07:48;16.10;52.29
70170;DHT22;57543;45.442;9.212;2023-11-19T10:10:54;16.00;52.47
70170;DHT22;57543;45.442;9.212;2023-11-19T10:13:59;15.91;52.50
70170;DHT22;57543;45.442;9.212;2023-11-19T10:17:03;16.11;51.87
70170;DHT22;57543;45.442;9.212;2023-11-19T10:20:10;16.17;51.53
70170;DHT22;57543;45.442;9.212;2023-11-19T10:23:14;16.39;49.79
70170;DHT22;57543;45.442;9.212;2023-11-19T10:26:19;16.48;49.79
70170;DHT22;57543;45.442;9.212;2023-11-19T10:29:23;16.69;49.11
70170;DHT22;57543;45.442;9.212;2023-11-19T10:32:27;16.97;48.97
70170;DHT22;57543;45.442;9.212;2023-11-19T10:35:31;16.85;47.54
70170;DHT22;57543;45.442;9.212;2023-11-19T10:38:35;16.87;47.94
70170;DHT22;57543;45.442;9.212;2023-11-19T10:41:39;16.77;47.91
70170;DHT22;57543;45.442;9.212;2023-11-19T10:44:43;16.83;48.28
70170;DHT22;57543;45.442;9.212;2023-11-19T10:47:47;17.10;47.81
70170;DHT22;57543;45.442;9.212;2023-11-19T10:50:53;17.10;47.63
70170;DHT22;57543;45.442;9.212;2023-11-19T10:54:04;17.35;47.72
70170;DHT22;57543;45.442;9.212;2023-11-19T10:57:12;17.31;47.97
70170;DHT22;57543;45.442;9.212;2023-11-19T11:00:21;17.42;47.56
70170;DHT22;57543;45.442;9.212;2023-11-19T11:03:29;17.83;47.02
70170;DHT22;57543;45.442;9.212;2023-11-19T11:06:36;18.34;46.20
70170;DHT22;57543;45.442;9.212;2023-11-19T11:09:41;19.03;44.50
70170;DHT22;57543;45.442;9.212;2023-11-19T11:12:46;19.83;42.79
70170;DHT22;57543;45.442;9.212;2023-11-19T11:15:50;20.55;42.02
70170;DHT22;57543;45.442;9.212;2023-11-19T11:18:54;21.77;39.67
70170;DHT22;57543;45.442;9.212;2023-11-19T11:21:58;23.11;37.51
70170;DHT22;57543;45.442;9.212;2023-11-19T11:25:22;24.52;35.03
70170;DHT22;57543;45.442;9.212;2023-11-19T11:28:39;23.39;35.59
70170;DHT22;57543;45.442;9.212;2023-11-19T11:32:14;23.98;34.72
70170;DHT22;57543;45.442;9.212;2023-11-19T11:35:54;23.94;35.57
70170;DHT22;57543;45.442;9.212;2023-11-19T11:38:59;23.83;35.33
70170;DHT22;57543;45.442;9.212;2023-11-19T11:45:37;23.35;36.07
70170;DHT22;57543;45.442;9.212;2023-11-19T11:48:45;23.06;36.59
70170;DHT22;57543;45.442;9.212;2023-11-19T11:52:00;21.83;39.03
70170;DHT22;57543;45.442;9.212;2023-11-19T11:55:06;21.48;40.40
70170;DHT22;57543;45.442;9.212;2023-11-19T11:58:13;20.88;41.53
70170;DHT22;57543;45.442;9.212;2023-11-19T12:01:17;20.48;42.71
70170;DHT22;57543;45.442;9.212;2023-11-19T12:04:26;20.50;42.96
70170;DHT22;57543;45.442;9.212;2023-11-19T12:07:30;20.04;43.75
70170;DHT22;57543;45.442;9.212;2023-11-19T12:10:48;20.17;43.88
70170;DHT22;57543;45.442;9.212;2023-11-19T12:13:54;20.03;43.64
70170;DHT22;57543;45.442;9.212;2023-11-19T12:20:36;20.01;43.17
70170;DHT22;57543;45.442;9.212;2023-11-19T12:23:46;19.91;43.78
70170;DHT22;57543;45.442;9.212;2023-11-19T12:26:51;19.76;43.90
70170;DHT22;57543;45.442;9.212;2023-11-19T12:29:57;19.55;43.99
70170;DHT22;57543;45.442;9.212;2023-11-19T12:33:07;19.55;43.85
70170;DHT22;57543;45.442;9.212;2023-11-19T12:36:11;19.74;43.90
70170;DHT22;57543;45.442;9.212;2023-11-19T12:39:14;19.77;43.77
70170;DHT22;57543;45.442;9.212;2023-11-19T12:42:21;19.48;44.12
70170;DHT22;57543;45.442;9.212;2023-11-19T12:45:24;19.60;43.50
70170;DHT22;57543;45.442;9.212;2023-11-19T12:48:31;19.65;43.80
70170;DHT22;57543;45.442;9.212;2023-11-19T12:51:37;19.58;43.88
70170;DHT22;57543;45.442;9.212;2023-11-19T12:54:44;19.59;43.91
70170;DHT22;57543;45.442;9.212;2023-11-19T12:57:48;19.62;43.84
70170;DHT22;57543;45.442;9.212;2023-11-19T13:00:59;19.73;43.57
70170;DHT22;57543;45.442;9.212;2023-11-19T13:04:15;19.70;43.13
70170;DHT22;57543;45.442;9.212;2023-11-19T13:07:22;19.60;43.27
70170;DHT22;57543;45.442;9.212;2023-11-19T13:13:56;19.69;43.13
70170;DHT22;57543;45.442;9.212;2023-11-19T13:17:01;19.77;43.09
70170;DHT22;57543;45.442;9.212;2023-11-19T13:20:05;19.67;43.29
70170;DHT22;57543;45.442;9.212;2023-11-19T13:23:09;19.56;43.68
70170;DHT22;57543;45.442;9.212;2023-11-19T13:26:16;19.62;43.39
70170;DHT22;57543;45.442;9.212;2023-11-19T13:29:20;19.56;43.60
70170;DHT22;57543;45.442;9.212;2023-11-19T13:32:23;19.86;43.34
70170;DHT22;57543;45.442;9.212;2023-11-19T13:35:26;19.79;43.86
70170;DHT22;57543;45.442;9.212;2023-11-19T13:38:32;20.01;43.93
70170;DHT22;57543;45.442;9.212;2023-11-19T13:41:36;20.18;43.41
70170;DHT22;57543;45.442;9.212;2023-11-19T13:44:40;19.87;44.40
70170;DHT22;57543;45.442;9.212;2023-11-19T13:47:45;20.04;42.90
70170;DHT22;57543;45.442;9.212;2023-11-19T13:50:49;20.15;43.03
70170;DHT22;57543;45.442;9.212;2023-11-19T13:53:52;20.28;42.53
70170;DHT22;57543;45.442;9.212;2023-11-19T13:56:56;20.41;42.16
70170;DHT22;57543;45.442;9.212;2023-11-19T14:00:08;20.32;42.91
70170;DHT22;57543;45.442;9.212;2023-11-19T14:03:30;20.33;42.66
70170;DHT22;57543;45.442;9.212;2023-11-19T14:06:37;20.35;42.77
70170;DHT22;57543;45.442;9.212;2023-11-19T14:09:43;20.38;42.74
70170;DHT22;57543;45.442;9.212;2023-11-19T14:12:50;20.48;42.77
70170;DHT22;57543;45.442;9.212;2023-11-19T14:15:56;20.11;43.71
70170;DHT22;57543;45.442;9.212;2023-11-19T14:19:03;19.98;43.96
70170;DHT22;57543;45.442;9.212;2023-11-19T14:22:06;20.15;43.83
70170;DHT22;57543;45.442;9.212;2023-11-19T14:25:10;19.80;44.90
70170;DHT22;57543;45.442;9.212;2023-11-19T14:28:14;20.00;44.41
70170;DHT22;57543;45.442;9.212;2023-11-19T14:31:18;19.98;44.28
70170;DHT22;57543;45.442;9.212;2023-11-19T14:34:22;20.03;44.47
70170;DHT22;57543;45.442;9.212;2023-11-19T14:37:25;19.93;44.54
70170;DHT22;57543;45.442;9.212;2023-11-19T14:40:29;19.94;44.52
70170;DHT22;57543;45.442;9.212;2023-11-19T14:43:33;19.93;44.72
70170;DHT22;57543;45.442;9.212;2023-11-19T14:46:37;19.66;45.38
70170;DHT22;57543;45.442;9.212;2023-11-19T14:49:40;19.56;45.41
70170;DHT22;57543;45.442;9.212;2023-11-19T14:52:44;19.46;45.47
70170;DHT22;57543;45.442;9.212;2023-11-19T14:55:48;19.12;46.23
70170;DHT22;57543;45.442;9.212;2023-11-19T14:58:51;18.87;46.87
70170;DHT22;57543;45.442;9.212;2023-11-19T15:01:55;18.71;47.25
70170;DHT22;57543;45.442;9.212;2023-11-19T15:04:59;18.55;47.57
70170;DHT22;57543;45.442;9.212;2023-11-19T15:08:03;18.35;47.88
70170;DHT22;57543;45.442;9.212;2023-11-19T15:11:08;18.02;48.88
70170;DHT22;57543;45.442;9.212;2023-11-19T15:14:13;17.91;49.02
70170;DHT22;57543;45.442;9.212;2023-11-19T15:17:22;17.73;49.66
70170;DHT22;57543;45.442;9.212;2023-11-19T15:20:25;17.55;49.72
70170;DHT22;57543;45.442;9.212;2023-11-19T15:23:32;17.40;50.54
70170;DHT22;57543;45.442;9.212;2023-11-19T15:26:36;17.35;50.57
70170;DHT22;57543;45.442;9.212;2023-11-19T15:29:43;17.25;51.04
70170;DHT22;57543;45.442;9.212;2023-11-19T15:32:53;17.12;51.19
70170;DHT22;57543;45.442;9.212;2023-11-19T15:36:01;16.99;51.44
70170;DHT22;57543;45.442;9.212;2023-11-19T15:39:07;16.88;51.78
70170;DHT22;57543;45.442;9.212;2023-11-19T15:42:10;16.79;52.11
70170;DHT22;57543;45.442;9.212;2023-11-19T15:45:15;16.63;52.64
70170;DHT22;57543;45.442;9.212;2023-11-19T15:48:19;16.48;52.81
70170;DHT22;57543;45.442;9.212;2023-11-19T15:51:23;16.31;53.42
70170;DHT22;57543;45.442;9.212;2023-11-19T15:54:26;16.21;53.63
70170;DHT22;57543;45.442;9.212;2023-11-19T15:57:30;16.10;53.88
70170;DHT22;57543;45.442;9.212;2023-11-19T16:00:34;15.97;54.36
70170;DHT22;57543;45.442;9.212;2023-11-19T16:03:37;15.83;55.17
70170;DHT22;57543;45.442;9.212;2023-11-19T16:06:40;15.77;55.15
70170;DHT22;57543;45.442;9.212;2023-11-19T16:09:44;15.66;55.86
70170;DHT22;57543;45.442;9.212;2023-11-19T16:12:48;15.50;55.90
70170;DHT22;57543;45.442;9.212;2023-11-19T16:15:52;15.38;56.46
70170;DHT22;57543;45.442;9.212;2023-11-19T16:18:56;15.36;56.33
70170;DHT22;57543;45.442;9.212;2023-11-19T16:22:00;15.31;56.40
70170;DHT22;57543;45.442;9.212;2023-11-19T16:25:13;15.21;56.95
70170;DHT22;57543;45.442;9.212;2023-11-19T16:28:18;15.12;57.09
70170;DHT22;57543;45.442;9.212;2023-11-19T16:31:25;15.07;57.80
70170;DHT22;57543;45.442;9.212;2023-11-19T16:34:31;14.94;58.86
70170;DHT22;57543;45.442;9.212;2023-11-19T16:37:37;14.87;58.70
70170;DHT22;57543;45.442;9.212;2023-11-19T16:40:42;14.75;59.25
70170;DHT22;57543;45.442;9.212;2023-11-19T16:43:46;14.69;58.88
70170;DHT22;57543;45.442;9.212;2023-11-19T16:47:12;14.66;58.94
70170;DHT22;57543;45.442;9.212;2023-11-19T16:50:16;14.63;58.87
70170;DHT22;57543;45.442;9.212;2023-11-19T16:53:20;14.55;59.27
70170;DHT22;57543;45.442;9.212;2023-11-19T16:56:29;14.49;59.88
70170;DHT22;57543;45.442;9.212;2023-11-19T16:59:36;14.55;59.33
70170;DHT22;57543;45.442;9.212;2023-11-19T17:02:50;14.46;59.95
70170;DHT22;57543;45.442;9.212;2023-11-19T17:05:54;14.38;60.26
70170;DHT22;57543;45.442;9.212;2023-11-19T17:08:58;14.35;60.51
70170;DHT22;57543;45.442;9.212;2023-11-19T17:12:04;14.26;60.49
70170;DHT22;57543;45.442;9.212;2023-11-19T17:15:07;14.21;60.13
70170;DHT22;57543;45.442;9.212;2023-11-19T17:18:13;14.17;60.63
70170;DHT22;57543;45.442;9.212;2023-11-19T17:21:19;14.13;60.45
70170;DHT22;57543;45.442;9.212;2023-11-19T17:24:22;14.13;60.50
70170;DHT22;57543;45.442;9.212;2023-11-19T17:27:25;14.03;60.65
70170;DHT22;57543;45.442;9.212;2023-11-19T17:30:31;14.04;60.61
70170;DHT22;57543;45.442;9.212;2023-11-19T17:33:35;14.04;60.73
70170;DHT22;57543;45.442;9.212;2023-11-19T17:36:38;14.06;60.95
70170;DHT22;57543;45.442;9.212;2023-11-19T17:39:42;14.04;60.83
70170;DHT22;57543;45.442;9.212;2023-11-19T17:42:45;14.06;61.37
70170;DHT22;57543;45.442;9.212;2023-11-19T17:45:49;14.01;61.21
70170;DHT22;57543;45.442;9.212;2023-11-19T17:48:52;13.96;61.37
70170;DHT22;57543;45.442;9.212;2023-11-19T17:51:56;13.98;61.08
70170;DHT22;57543;45.442;9.212;2023-11-19T17:55:02;13.90;61.61
70170;DHT22;57543;45.442;9.212;2023-11-19T17:58:10;13.93;61.39
70170;DHT22;57543;45.442;9.212;2023-11-19T18:01:16;13.93;61.02
70170;DHT22;57543;45.442;9.212;2023-11-19T18:04:19;13.63;62.03
70170;DHT22;57543;45.442;9.212;2023-11-19T18:07:23;13.70;62.00
70170;DHT22;57543;45.442;9.212;2023-11-19T18:10:26;13.76;61.41
70170;DHT22;57543;45.442;9.212;2023-11-19T18:13:31;13.72;61.57
70170;DHT22;57543;45.442;9.212;2023-11-19T18:16:38;13.79;61.49
70170;DHT22;57543;45.442;9.212;2023-11-19T18:19:42;13.59;62.17
70170;DHT22;57543;45.442;9.212;2023-11-19T18:22:46;13.56;62.61
70170;DHT22;57543;45.442;9.212;2023-11-19T18:26:03;13.48;62.44
70170;DHT22;57543;45.442;9.212;2023-11-19T18:29:09;13.51;62.61
70170;DHT22;57543;45.442;9.212;2023-11-19T18:32:14;13.51;62.43
70170;DHT22;57543;45.442;9.212;2023-11-19T18:35:21;13.61;62.02
70170;DHT22;57543;45.442;9.212;2023-11-19T18:38:26;13.69;61.79
70170;DHT22;57543;45.442;9.212;2023-11-19T18:41:30;13.73;61.47
70170;DHT22;57543;45.442;9.212;2023-11-19T18:44:33;13.72;61.25
70170;DHT22;57543;45.442;9.212;2023-11-19T18:47:40;13.63;62.13
70170;DHT22;57543;45.442;9.212;2023-11-19T18:50:44;13.66;61.48
70170;DHT22;57543;45.442;9.212;2023-11-19T18:53:48;13.66;61.38
70170;DHT22;57543;45.442;9.212;2023-11-19T18:56:51;13.58;62.18
70170;DHT22;57543;45.442;9.212;2023-11-19T19:00:00;13.38;62.93
70170;DHT22;57543;45.442;9.212;2023-11-19T19:03:09;13.39;63.08
70170;DHT22;57543;45.442;9.212;2023-11-19T19:06:17;13.36;63.16
70170;DHT22;57543;45.442;9.212;2023-11-19T19:09:20;13.22;64.01
70170;DHT22;57543;45.442;9.212;2023-11-19T19:12:25;13.06;64.31
70170;DHT22;57543;45.442;9.212;2023-11-19T19:15:28;13.10;64.45
70170;DHT22;57543;45.442;9.212;2023-11-19T19:18:32;13.19;63.71
70170;DHT22;57543;45.442;9.212;2023-11-19T19:21:37;13.17;63.69
70170;DHT22;57543;45.442;9.212;2023-11-19T19:24:41;13.22;63.52
70170;DHT22;57543;45.442;9.212;2023-11-19T19:27:44;13.21;63.42
70170;DHT22;57543;45.442;9.212;2023-11-19T19:30:49;13.25;63.21
70170;DHT22;57543;45.442;9.212;2023-11-19T19:33:53;13.24;63.71
70170;DHT22;57543;45.442;9.212;2023-11-19T19:37:04;13.08;64.42
70170;DHT22;57543;45.442;9.212;2023-11-19T19:40:12;12.99;64.73
70170;DHT22;57543;45.442;9.212;2023-11-19T19:43:16;12.91;65.03
70170;DHT22;57543;45.442;9.212;2023-11-19T19:46:19;12.84;65.26
70170;DHT22;57543;45.442;9.212;2023-11-19T19:49:23;12.86;65.14